Time;durP1;ratioP1;P1;durP2;ratioP2;P2;SDS_P1;SDS_P2;PMS_P1;PMS_P2;Temp;Humidity;BMP_temperature;BMP_pressure;BME280_temperature;BME280_humidity;BME280_pressure;Samples;Min_cycle;Max_cycle;Signal;HPM_P1;HPM_P2
2024/02/20 05:00:14;;;;;;;12.23;2.22;;;7.10;99.90;;;;;;5947341;23;20191;31
2024/02/20 05:02:42;;;;;;;2.15;1.15;;;7.10;99.90;;;;;;4872385;29;20666;-69
2024/02/20 05:05:09;;;;;;;4.40;1.48;;;7.10;99.90;;;;;;4876578;29;20718;-70
2024/02/20 05:07:35;;;;;;;1.10;0.65;;;7.10;99.90;;;;;;4875024;29;20208;-71
2024/02/20 05:10:06;;;;;;;5.85;2.65;;;7.00;99.90;;;;;;4876657;29;20208;-71
2024/02/20 05:12:32;;;;;;;5.55;2.20;;;7.10;99.90;;;;;;4876606;29;20220;-70
2024/02/20 05:14:59;;;;;;;9.50;1.88;;;7.10;99.90;;;;;;4877933;29;20238;-70
2024/02/20 05:17:27;;;;;;;4.35;1.88;;;7.10;99.90;;;;;;4880452;29;20246;-69
2024/02/20 05:19:54;;;;;;;6.30;2.10;;;7.10;99.90;;;;;;4878889;29;20222;-71
2024/02/20 05:22:21;;;;;;;6.57;1.70;;;7.10;99.90;;;;;;4878730;29;20234;-71
2024/02/20 05:24:48;;;;;;;5.47;1.00;;;7.10;99.90;;;;;;4880296;29;20216;-69
2024/02/20 05:27:14;;;;;;;8.23;1.17;;;7.10;99.90;;;;;;4878453;29;20293;-68
2024/02/20 05:29:41;;;;;;;8.60;1.40;;;7.00;99.90;;;;;;4879501;29;20212;-69
2024/02/20 05:32:08;;;;;;;5.15;1.35;;;7.00;99.90;;;;;;4880257;29;20745;-68
2024/02/20 05:34:36;;;;;;;8.63;1.75;;;6.90;99.90;;;;;;4879608;29;20232;-69
2024/02/20 05:37:03;;;;;;;7.50;1.38;;;6.90;99.90;;;;;;4879242;29;20581;-69
2024/02/20 05:39:30;;;;;;;5.50;2.95;;;6.90;99.90;;;;;;4879030;29;20227;-70
2024/02/20 05:41:56;;;;;;;4.60;1.20;;;6.90;99.90;;;;;;4879550;29;20311;-69
2024/02/20 05:44:23;;;;;;;10.52;2.40;;;6.90;99.90;;;;;;4880030;29;20211;-69
2024/02/20 05:46:50;;;;;;;1.60;1.50;;;6.90;99.90;;;;;;4880442;29;20216;-69
2024/02/20 05:49:16;;;;;;;5.50;1.55;;;6.90;99.90;;;;;;4879571;29;20212;-69
2024/02/20 05:51:45;;;;;;;6.25;1.58;;;6.90;99.90;;;;;;4879918;29;20243;-68
2024/02/20 05:54:12;;;;;;;4.50;1.23;;;6.90;99.90;;;;;;4879261;29;20402;-69
2024/02/20 05:56:41;;;;;;;8.15;1.98;;;6.90;99.90;;;;;;4879493;29;20223;-69
2024/02/20 05:59:07;;;;;;;4.80;1.27;;;6.90;99.90;;;;;;4879625;29;20222;-71
2024/02/20 06:01:34;;;;;;;16.20;2.17;;;6.90;99.90;;;;;;4879553;29;20242;-70
2024/02/20 06:04:04;;;;;;;5.50;1.88;;;6.90;99.90;;;;;;4876492;29;20211;-68
2024/02/20 06:06:31;;;;;;;6.85;1.75;;;6.80;99.90;;;;;;4878081;29;20204;-68
2024/02/20 06:08:59;;;;;;;5.45;2.28;;;6.90;99.90;;;;;;4879138;29;20220;-69
2024/02/20 06:11:27;;;;;;;12.95;2.70;;;6.90;99.90;;;;;;4879115;29;20710;-70
2024/02/20 06:13:53;;;;;;;3.00;1.85;;;6.90;99.90;;;;;;4880078;29;20238;-68
2024/02/20 06:16:21;;;;;;;2.35;1.50;;;6.90;99.90;;;;;;4873142;29;20235;-70
2024/02/20 06:18:48;;;;;;;4.65;2.15;;;6.90;99.90;;;;;;4875846;29;20212;-69
2024/02/20 06:21:15;;;;;;;3.90;1.92;;;6.90;99.90;;;;;;4880467;29;20237;-69
2024/02/20 06:23:43;;;;;;;8.90;2.10;;;6.90;99.90;;;;;;4878465;29;20219;-68
2024/02/20 06:26:11;;;;;;;3.95;1.00;;;6.90;99.90;;;;;;4878111;29;20219;-69
2024/02/20 06:28:37;;;;;;;9.85;2.20;;;6.90;99.90;;;;;;4879971;29;20223;-69
2024/02/20 06:31:07;;;;;;;7.95;2.15;;;6.90;99.90;;;;;;4877181;29;20801;-68
2024/02/20 06:33:33;;;;;;;6.57;2.40;;;6.90;99.90;;;;;;4879122;29;20216;-68
2024/02/20 06:36:00;;;;;;;4.60;2.45;;;6.90;99.90;;;;;;4879401;29;20277;-68
2024/02/20 06:38:31;;;;;;;24.33;2.72;;;6.90;99.90;;;;;;4875782;29;20218;-69
2024/02/20 06:40:58;;;;;;;7.68;1.92;;;6.90;99.90;;;;;;4878651;29;20236;-69
2024/02/20 06:43:26;;;;;;;8.27;2.00;;;6.90;99.90;;;;;;4878277;29;20239;-70
2024/02/20 06:45:53;;;;;;;10.20;2.20;;;6.90;99.90;;;;;;4875368;29;20211;-70
2024/02/20 06:48:21;;;;;;;5.82;2.53;;;6.90;99.90;;;;;;4875717;29;20216;-70
2024/02/20 06:50:48;;;;;;;7.72;2.97;;;6.90;99.90;;;;;;4875639;29;20227;-69
2024/02/20 06:53:14;;;;;;;6.75;1.50;;;6.90;99.90;;;;;;4878335;29;20219;-70
2024/02/20 06:55:41;;;;;;;8.15;1.38;;;7.00;99.90;;;;;;4879227;29;20257;-70
2024/02/20 06:58:08;;;;;;;10.57;1.98;;;7.00;99.90;;;;;;4879075;29;20658;-71
2024/02/20 07:00:37;;;;;;;7.75;3.50;;;7.00;99.90;;;;;;4874207;29;20239;-69
2024/02/20 07:03:04;;;;;;;25.63;2.35;;;6.90;99.90;;;;;;4878423;29;20212;-69
2024/02/20 07:05:31;;;;;;;11.10;1.77;;;6.90;99.90;;;;;;4878321;29;20212;-69
2024/02/20 07:07:57;;;;;;;8.88;2.15;;;6.90;99.90;;;;;;4874677;29;20223;-70
2024/02/20 07:10:24;;;;;;;18.75;3.90;;;6.90;99.90;;;;;;4876376;29;20541;-69
2024/02/20 07:12:51;;;;;;;9.55;2.08;;;6.90;99.90;;;;;;4877918;29;20208;-70
2024/02/20 07:15:18;;;;;;;5.50;2.30;;;7.00;99.90;;;;;;4877715;29;20577;-70
2024/02/20 07:17:46;;;;;;;8.55;2.03;;;6.90;99.90;;;;;;4870328;29;20571;-70
2024/02/20 07:20:13;;;;;;;8.15;1.95;;;6.90;99.90;;;;;;4877476;29;20223;-72
2024/02/20 07:22:40;;;;;;;5.25;3.22;;;6.90;99.90;;;;;;4877938;29;20215;-70
2024/02/20 07:25:08;;;;;;;7.78;2.20;;;6.90;99.90;;;;;;4875808;29;20220;-69
2024/02/20 07:27:35;;;;;;;7.38;2.00;;;6.90;99.90;;;;;;4874715;29;20741;-71
2024/02/20 07:30:03;;;;;;;14.85;2.78;;;6.90;99.90;;;;;;4877306;29;20300;-71
2024/02/20 07:32:30;;;;;;;5.35;2.00;;;6.90;99.90;;;;;;4874300;29;20259;-71
2024/02/20 07:34:58;;;;;;;23.75;8.43;;;6.80;99.90;;;;;;4876580;29;20231;-71
2024/02/20 07:37:25;;;;;;;3.25;2.42;;;6.80;99.90;;;;;;4879159;29;20212;-71
2024/02/20 07:39:51;;;;;;;6.22;2.10;;;6.80;99.90;;;;;;4871999;29;20227;-71
2024/02/20 07:42:18;;;;;;;6.15;1.95;;;6.80;99.90;;;;;;4877183;29;20238;-70
2024/02/20 07:44:45;;;;;;;11.80;2.20;;;6.80;99.90;;;;;;4877217;29;20223;-71
2024/02/20 07:47:11;;;;;;;6.57;1.60;;;6.90;99.90;;;;;;4877965;29;20229;-70
2024/02/20 07:49:38;;;;;;;17.67;3.22;;;7.00;99.90;;;;;;4871451;29;20208;-70
2024/02/20 07:52:07;;;;;;;13.52;2.90;;;7.00;99.90;;;;;;4874077;29;20665;-70
2024/02/20 07:54:34;;;;;;;5.38;2.95;;;7.10;99.90;;;;;;4877053;29;20236;-71
2024/02/20 07:57:01;;;;;;;6.72;1.63;;;7.10;99.90;;;;;;4872685;29;20566;-70
2024/02/20 07:59:28;;;;;;;10.57;2.25;;;7.20;99.90;;;;;;4877051;29;20921;-69
2024/02/20 08:01:54;;;;;;;13.20;2.42;;;7.20;99.90;;;;;;4877715;29;20243;-70
2024/02/20 08:04:22;;;;;;;8.00;2.03;;;7.20;99.90;;;;;;4877264;29;20211;-70
2024/02/20 08:06:49;;;;;;;4.22;2.40;;;7.30;99.90;;;;;;4877820;29;20216;-70
2024/02/20 08:09:17;;;;;;;5.30;2.08;;;7.30;99.90;;;;;;4876254;29;20208;-71
2024/02/20 08:11:44;;;;;;;4.70;1.80;;;7.40;99.90;;;;;;4877044;29;20611;-72
2024/02/20 08:14:10;;;;;;;12.20;3.95;;;7.40;99.90;;;;;;4877805;29;20215;-71
2024/02/20 08:16:39;;;;;;;17.88;2.80;;;7.40;99.90;;;;;;4877919;29;20243;-69
2024/02/20 08:19:05;;;;;;;18.25;3.58;;;7.50;99.90;;;;;;4873519;29;20215;-70
2024/02/20 08:21:32;;;;;;;9.27;1.70;;;7.50;99.90;;;;;;4877126;29;20228;-70
2024/02/20 08:24:00;;;;;;;10.88;2.60;;;7.60;99.90;;;;;;4876433;29;20675;-70
2024/02/20 08:26:28;;;;;;;12.40;3.22;;;7.70;99.90;;;;;;4875359;29;20295;-71
2024/02/20 08:28:55;;;;;;;22.70;2.75;;;7.80;99.90;;;;;;4876811;29;20581;-70
2024/02/20 08:31:21;;;;;;;4.13;2.13;;;8.00;99.90;;;;;;4876849;29;20704;-71
2024/02/20 08:33:49;;;;;;;10.48;2.30;;;8.10;99.90;;;;;;4876893;29;20204;-71
2024/02/20 08:36:17;;;;;;;21.02;3.78;;;8.20;99.90;;;;;;4877209;29;20274;-70
2024/02/20 08:38:44;;;;;;;11.93;2.90;;;8.30;99.90;;;;;;4875955;29;20296;-71
2024/02/20 08:41:11;;;;;;;6.05;2.20;;;8.30;99.90;;;;;;4876256;29;20223;-73
2024/02/20 08:43:39;;;;;;;14.65;2.55;;;8.40;99.90;;;;;;4876625;29;20216;-70
2024/02/20 08:46:06;;;;;;;6.97;2.55;;;8.40;99.90;;;;;;4876405;29;20204;-70
2024/02/20 08:48:33;;;;;;;15.30;2.45;;;8.50;99.90;;;;;;4876158;29;20243;-71
2024/02/20 08:50:59;;;;;;;7.30;1.70;;;8.40;99.90;;;;;;4869800;29;20232;-70
2024/02/20 08:53:26;;;;;;;12.68;3.53;;;8.40;99.90;;;;;;4874034;29;20211;-69
2024/02/20 08:55:54;;;;;;;9.98;2.00;;;8.50;99.90;;;;;;4876937;29;20228;-71
2024/02/20 08:58:20;;;;;;;6.47;2.05;;;8.50;99.90;;;;;;4876128;29;20215;-71
2024/02/20 09:00:49;;;;;;;12.65;2.38;;;8.60;99.90;;;;;;4875893;29;20235;-71
2024/02/20 09:03:15;;;;;;;4.93;1.92;;;8.70;99.90;;;;;;4876922;29;20218;-71
2024/02/20 09:05:42;;;;;;;9.52;1.73;;;8.70;99.90;;;;;;4876621;29;20205;-71
2024/02/20 09:08:09;;;;;;;10.77;2.15;;;8.70;99.90;;;;;;4876936;29;20242;-71
2024/02/20 09:10:38;;;;;;;10.77;2.55;;;8.80;99.90;;;;;;4875965;29;20230;-71
2024/02/20 09:13:06;;;;;;;8.32;2.85;;;8.80;99.90;;;;;;4875974;29;20217;-71
2024/02/20 09:15:34;;;;;;;6.47;1.73;;;8.90;99.90;;;;;;4876245;29;20280;-71
2024/02/20 09:18:02;;;;;;;14.77;3.78;;;8.80;99.90;;;;;;4870031;29;20220;-71
2024/02/20 09:20:29;;;;;;;15.02;3.38;;;8.80;99.90;;;;;;4875493;29;21607;-70
2024/02/20 09:22:56;;;;;;;8.63;1.95;;;8.70;99.90;;;;;;4869802;29;20309;-71
2024/02/20 09:25:23;;;;;;;4.80;2.00;;;8.70;99.90;;;;;;4873923;29;20247;-70
2024/02/20 09:27:50;;;;;;;7.55;2.75;;;8.70;99.90;;;;;;4875394;29;20239;-70
2024/02/20 09:30:17;;;;;;;11.88;3.13;;;8.80;99.90;;;;;;4875399;29;20579;-70
2024/02/20 09:32:44;;;;;;;17.15;3.13;;;8.80;99.90;;;;;;4874640;29;20286;-70
2024/02/20 09:35:14;;;;;;;4.20;3.72;;;8.80;99.90;;;;;;4875585;29;20239;-69
2024/02/20 09:37:40;;;;;;;18.50;3.67;;;8.70;99.90;;;;;;4875677;29;20586;-71
2024/02/20 09:40:08;;;;;;;6.90;2.80;;;8.60;99.90;;;;;;4876459;29;20208;-70
2024/02/20 09:42:40;;;;;;;8.63;3.17;;;8.50;99.90;;;;;;4874506;29;20231;-71
2024/02/20 09:45:16;;;;;;;18.02;4.10;;;8.40;99.90;;;;;;4876766;29;20214;-71
2024/02/20 09:47:44;;;;;;;8.90;3.90;;;8.50;99.90;;;;;;4877057;29;20203;-69
2024/02/20 09:50:15;;;;;;;12.10;3.53;;;8.40;99.90;;;;;;4877789;29;20227;-69
2024/02/20 09:52:47;;;;;;;10.23;5.53;;;8.50;99.90;;;;;;4874310;29;20256;-69
2024/02/20 09:55:16;;;;;;;18.02;4.85;;;8.40;99.90;;;;;;4875228;29;20224;-69
2024/02/20 09:57:43;;;;;;;11.98;4.80;;;8.50;99.90;;;;;;4874873;29;20212;-70
2024/02/20 10:00:11;;;;;;;12.43;4.93;;;8.50;99.90;;;;;;4873572;29;20209;-69
2024/02/20 10:02:40;;;;;;;9.15;4.88;;;8.50;99.90;;;;;;4876744;29;20469;-69
2024/02/20 10:05:11;;;;;;;9.57;4.78;;;8.50;99.90;;;;;;4879811;29;20294;-68
2024/02/20 10:07:40;;;;;;;10.45;4.85;;;8.50;99.90;;;;;;4873695;29;20207;-69
2024/02/20 10:10:09;;;;;;;9.75;4.25;;;8.60;99.90;;;;;;4878850;29;20219;-69
2024/02/20 10:12:39;;;;;;;9.63;4.70;;;8.60;99.90;;;;;;4876768;29;20212;-70
2024/02/20 10:15:07;;;;;;;12.48;4.00;;;8.60;99.90;;;;;;4879532;29;20691;-69
2024/02/20 10:17:34;;;;;;;10.07;3.83;;;8.60;99.90;;;;;;4879347;29;20247;-69
2024/02/20 10:20:10;;;;;;;9.32;4.93;;;8.60;99.90;;;;;;4879126;29;20269;-69
2024/02/20 10:22:37;;;;;;;3.95;3.20;;;8.70;99.90;;;;;;4884744;29;20300;-70
2024/02/20 10:25:08;;;;;;;9.20;4.75;;;8.80;99.90;;;;;;4872198;29;20204;-69
2024/02/20 10:27:35;;;;;;;13.55;3.60;;;8.90;99.90;;;;;;4878745;29;20231;-70
2024/02/20 10:30:03;;;;;;;9.98;4.20;;;9.10;99.90;;;;;;4879272;29;20230;-69
2024/02/20 10:32:33;;;;;;;15.20;5.30;;;9.30;99.90;;;;;;4878980;29;20272;-69
2024/02/20 10:35:00;;;;;;;7.72;3.88;;;9.40;99.90;;;;;;4878189;29;20266;-70
2024/02/20 10:37:27;;;;;;;3.00;2.80;;;9.40;99.90;;;;;;4876345;29;20688;-71
2024/02/20 10:40:04;;;;;;;5.68;3.45;;;9.40;99.90;;;;;;4876528;29;20207;-71
2024/02/20 10:42:35;;;;;;;8.82;4.55;;;9.40;99.90;;;;;;4878783;29;20255;-71
2024/02/20 10:45:06;;;;;;;9.93;5.28;;;9.50;99.90;;;;;;4879065;29;20217;-71
2024/02/20 10:47:35;;;;;;;10.77;3.47;;;9.50;99.90;;;;;;4879135;29;20205;-71
2024/02/20 10:50:05;;;;;;;11.63;3.95;;;9.50;99.90;;;;;;4877629;29;20605;-71
2024/02/20 10:52:32;;;;;;;4.90;4.07;;;9.50;99.90;;;;;;4878092;29;20317;-71
2024/02/20 10:55:03;;;;;;;15.50;4.43;;;9.60;99.90;;;;;;4877247;29;20214;-70
2024/02/20 10:57:33;;;;;;;14.88;3.55;;;9.70;99.90;;;;;;4876363;29;20214;-70
2024/02/20 11:00:03;;;;;;;3.63;3.30;;;9.70;99.90;;;;;;4879625;29;20217;-70
2024/02/20 11:02:32;;;;;;;4.30;3.20;;;9.80;99.90;;;;;;4879250;29;20242;-71
2024/02/20 11:04:59;;;;;;;12.13;3.47;;;9.90;99.90;;;;;;4873027;29;20215;-71
2024/02/20 11:07:26;;;;;;;8.07;3.05;;;9.90;99.90;;;;;;4878667;29;20635;-72
2024/02/20 11:10:07;;;;;;;3.80;2.60;;;9.90;99.90;;;;;;4868869;29;20205;-71
2024/02/20 11:12:35;;;;;;;6.57;2.35;;;9.80;99.90;;;;;;4875010;29;20233;-71
2024/02/20 11:15:09;;;;;;;7.78;2.30;;;9.80;99.90;;;;;;4874733;29;20217;-71
2024/02/20 11:17:36;;;;;;;6.47;2.83;;;9.70;99.90;;;;;;4869556;29;20218;-71
2024/02/20 11:20:08;;;;;;;8.85;3.28;;;9.80;99.90;;;;;;4877342;29;20222;-69
2024/02/20 11:22:35;;;;;;;5.57;2.30;;;9.90;99.90;;;;;;4877852;29;20238;-70
2024/02/20 11:25:09;;;;;;;4.00;2.38;;;10.00;99.90;;;;;;4878946;29;20594;-71
2024/02/20 11:27:42;;;;;;;3.30;2.30;;;10.10;99.90;;;;;;4876005;29;20220;-70
2024/02/20 11:30:17;;;;;;;10.50;3.15;;;10.10;99.90;;;;;;4878125;29;20214;-69
2024/02/20 11:32:44;;;;;;;4.43;2.20;;;10.20;99.90;;;;;;4872263;29;20211;-70
2024/02/20 11:35:27;;;;;;;9.07;2.10;;;10.20;99.90;;;;;;4875473;29;20219;-70
2024/02/20 11:37:55;;;;;;;10.95;3.63;;;10.20;99.90;;;;;;4875770;29;20212;-71
2024/02/20 11:40:23;;;;;;;5.00;2.63;;;10.30;99.90;;;;;;4874960;29;20208;-71
2024/02/20 11:42:53;;;;;;;5.03;2.53;;;10.30;99.90;;;;;;4879378;29;20895;-71
2024/02/20 11:45:22;;;;;;;8.00;2.83;;;10.40;99.90;;;;;;4877452;29;20560;-70
2024/02/20 11:48:02;;;;;;;4.40;3.00;;;10.40;99.90;;;;;;4878751;29;20858;-71
2024/02/20 11:50:30;;;;;;;4.03;2.20;;;10.40;99.90;;;;;;4876534;29;20480;-71
2024/02/20 11:53:01;;;;;;;6.73;2.70;;;10.50;99.90;;;;;;4876700;29;20208;-72
2024/02/20 11:55:28;;;;;;;9.67;3.30;;;10.50;99.90;;;;;;4875656;29;20488;-72
2024/02/20 11:57:56;;;;;;;4.50;3.00;;;10.50;99.90;;;;;;4877595;29;21068;-72
2024/02/20 12:00:24;;;;;;;9.80;2.70;;;10.50;99.90;;;;;;4877596;29;20848;-72
2024/02/20 12:02:52;;;;;;;4.10;2.43;;;10.50;99.90;;;;;;4877966;29;20723;-72
2024/02/20 12:05:23;;;;;;;3.80;2.30;;;10.50;99.90;;;;;;4878261;29;20475;-72
2024/02/20 12:07:50;;;;;;;3.97;2.60;;;10.40;99.90;;;;;;4883222;29;20480;-72
2024/02/20 12:10:17;;;;;;;15.23;4.90;;;10.30;99.90;;;;;;4877459;29;20554;-71
2024/02/20 12:12:45;;;;;;;4.37;2.80;;;10.30;99.90;;;;;;4877208;29;20476;-71
2024/02/20 12:15:14;;;;;;;3.77;2.50;;;10.30;99.90;;;;;;4877809;29;20472;-70
2024/02/20 12:17:41;;;;;;;4.13;2.80;;;10.30;99.90;;;;;;4869963;29;20461;-71
2024/02/20 12:20:10;;;;;;;2.58;2.38;;;10.20;99.90;;;;;;4877132;29;20234;-69
2024/02/20 12:22:37;;;;;;;8.43;3.25;;;10.20;99.90;;;;;;4876306;29;20215;-70
2024/02/20 12:25:09;;;;;;;7.03;2.97;;;10.20;99.90;;;;;;4876438;29;20211;-71
2024/02/20 12:27:36;;;;;;;8.93;3.25;;;10.30;99.90;;;;;;4876527;29;20618;-71
2024/02/20 12:30:03;;;;;;;4.50;3.63;;;10.40;99.90;;;;;;4873565;29;20665;-71
2024/02/20 12:32:31;;;;;;;6.57;3.00;;;10.30;99.90;;;;;;4874512;29;20232;-72
2024/02/20 12:34:58;;;;;;;20.42;3.38;;;10.30;99.90;;;;;;4870160;29;20243;-71
2024/02/20 12:37:25;;;;;;;7.53;2.85;;;10.30;99.90;;;;;;4876567;29;20345;-70
2024/02/20 12:39:52;;;;;;;11.93;3.92;;;10.20;99.90;;;;;;4875528;29;20285;-70
2024/02/20 12:42:19;;;;;;;5.07;2.60;;;10.20;99.90;;;;;;4876558;29;20234;-71
2024/02/20 12:44:47;;;;;;;7.18;2.70;;;10.20;99.90;;;;;;4876871;29;20226;-71
2024/02/20 12:47:13;;;;;;;10.77;3.50;;;10.20;99.90;;;;;;4876891;29;20273;-71
2024/02/20 12:49:42;;;;;;;6.57;3.15;;;10.30;99.90;;;;;;4877056;29;20218;-71
2024/02/20 12:52:09;;;;;;;16.13;3.13;;;10.30;99.90;;;;;;4876158;29;20749;-71
2024/02/20 12:54:37;;;;;;;7.78;3.63;;;10.40;99.90;;;;;;4875822;29;21005;-71
2024/02/20 12:57:05;;;;;;;6.22;3.28;;;10.40;99.90;;;;;;4874225;29;20326;-71
2024/02/20 12:59:32;;;;;;;9.10;2.95;;;10.40;99.90;;;;;;4876216;29;20689;-71
2024/02/20 13:01:58;;;;;;;9.57;3.00;;;10.40;99.90;;;;;;4869368;29;20247;-71
2024/02/20 13:04:25;;;;;;;6.93;2.30;;;10.30;99.90;;;;;;4876318;29;20219;-71
2024/02/20 13:06:53;;;;;;;3.27;2.00;;;10.20;99.90;;;;;;4876609;29;20474;-72
2024/02/20 13:09:20;;;;;;;3.73;1.90;;;10.10;99.90;;;;;;4876000;29;20494;-71
2024/02/20 13:11:47;;;;;;;4.85;3.20;;;10.20;99.90;;;;;;4876303;29;20488;-71
2024/02/20 13:14:14;;;;;;;18.13;3.20;;;10.10;99.90;;;;;;4876799;29;20255;-70
2024/02/20 13:16:45;;;;;;;4.25;2.28;;;10.10;99.90;;;;;;4876394;29;20515;-71
2024/02/20 13:19:12;;;;;;;12.33;3.20;;;10.10;99.90;;;;;;4880204;29;20207;-70
2024/02/20 13:21:39;;;;;;;12.38;3.65;;;10.00;99.90;;;;;;4876493;29;20500;-69
2024/02/20 13:24:08;;;;;;;9.93;2.55;;;9.90;99.90;;;;;;4876774;29;20211;-70
2024/02/20 13:26:34;;;;;;;2.65;1.92;;;9.80;99.90;;;;;;4876492;29;20260;-70
2024/02/20 13:29:02;;;;;;;8.02;2.60;;;9.70;99.90;;;;;;4876179;29;20692;-70
2024/02/20 13:31:29;;;;;;;17.77;3.00;;;9.80;99.90;;;;;;4876800;29;20283;-70
2024/02/20 13:33:55;;;;;;;6.95;2.20;;;9.80;99.90;;;;;;4876447;29;20208;-71
2024/02/20 13:36:22;;;;;;;17.42;3.05;;;9.70;99.90;;;;;;4878215;29;20707;-71
2024/02/20 13:38:49;;;;;;;14.35;3.35;;;9.70;99.90;;;;;;4879465;29;20215;-70
2024/02/20 13:41:17;;;;;;;10.02;3.42;;;9.70;99.90;;;;;;4879606;29;20243;-71
2024/02/20 13:43:44;;;;;;;9.93;3.53;;;9.70;99.90;;;;;;4879998;29;20220;-71
2024/02/20 13:46:11;;;;;;;8.05;3.30;;;9.70;99.90;;;;;;4880404;29;20221;-70
2024/02/20 13:48:37;;;;;;;12.75;5.25;;;9.70;99.90;;;;;;4879716;29;20215;-71
2024/02/20 13:51:05;;;;;;;6.63;4.75;;;9.70;99.90;;;;;;4879490;29;20318;-71
2024/02/20 13:53:32;;;;;;;7.15;4.95;;;9.70;99.90;;;;;;4879702;29;20212;-71
2024/02/20 13:55:58;;;;;;;6.47;5.53;;;9.60;99.90;;;;;;4877417;29;20212;-71
2024/02/20 13:58:27;;;;;;;9.68;5.30;;;9.50;99.90;;;;;;4879826;29;20221;-71
2024/02/20 14:00:53;;;;;;;10.93;6.13;;;9.50;99.90;;;;;;4878362;29;20736;-70
2024/02/20 14:03:22;;;;;;;9.73;5.15;;;9.50;99.90;;;;;;4878988;29;20228;-70
2024/02/20 14:05:49;;;;;;;8.57;5.53;;;9.60;99.90;;;;;;4880075;29;20217;-71
2024/02/20 14:08:15;;;;;;;11.13;5.90;;;9.60;99.90;;;;;;4879648;29;20214;-71
2024/02/20 14:10:43;;;;;;;9.35;5.22;;;9.60;99.90;;;;;;4878964;29;20237;-70
2024/02/20 14:13:10;;;;;;;11.63;4.82;;;9.60;99.90;;;;;;4879340;29;20336;-71
2024/02/20 14:15:38;;;;;;;8.45;4.25;;;9.60;99.90;;;;;;4879883;29;20216;-71
2024/02/20 14:18:05;;;;;;;8.70;5.55;;;9.60;99.90;;;;;;4879455;29;20234;-71
2024/02/20 14:20:34;;;;;;;8.65;4.70;;;9.70;99.90;;;;;;4882630;29;20236;-71
2024/02/20 14:23:04;;;;;;;11.88;6.10;;;9.70;99.90;;;;;;4885633;29;20231;-71
2024/02/20 14:25:30;;;;;;;11.05;5.43;;;9.70;99.90;;;;;;4880221;29;20671;-71
2024/02/20 14:28:00;;;;;;;4.45;4.05;;;9.80;99.90;;;;;;4877481;29;20219;-71
2024/02/20 14:30:27;;;;;;;9.85;5.28;;;9.80;99.90;;;;;;4877027;29;20251;-70
2024/02/20 14:32:55;;;;;;;10.18;4.28;;;9.80;99.90;;;;;;4879363;29;20213;-71
2024/02/20 14:35:22;;;;;;;9.10;6.45;;;9.80;99.90;;;;;;4878954;29;20207;-71
2024/02/20 14:37:49;;;;;;;12.68;7.00;;;9.80;99.90;;;;;;4876328;29;20230;-70
2024/02/20 14:40:17;;;;;;;8.68;5.13;;;9.80;99.90;;;;;;4876379;29;20698;-71
2024/02/20 14:42:43;;;;;;;15.25;5.07;;;9.80;99.90;;;;;;4878532;29;20759;-70
2024/02/20 14:45:10;;;;;;;11.68;5.55;;;9.80;99.90;;;;;;4878147;29;20214;-70
2024/02/20 14:47:37;;;;;;;3.97;3.55;;;9.80;99.90;;;;;;4878205;29;20230;-70
2024/02/20 14:50:06;;;;;;;16.10;5.75;;;9.80;99.90;;;;;;4878617;29;20205;-71
2024/02/20 14:52:33;;;;;;;11.82;4.80;;;9.80;99.90;;;;;;4882559;29;20234;-71
2024/02/20 14:54:59;;;;;;;11.82;4.75;;;9.90;99.90;;;;;;4875417;29;20235;-71
2024/02/20 14:57:26;;;;;;;5.03;4.32;;;10.00;99.90;;;;;;4876226;29;20233;-71
2024/02/20 14:59:53;;;;;;;9.75;4.65;;;10.00;99.90;;;;;;4872578;29;20219;-71
2024/02/20 15:02:19;;;;;;;12.18;5.15;;;10.10;99.90;;;;;;4875416;29;20757;-71
2024/02/20 15:04:46;;;;;;;8.90;5.28;;;10.10;99.90;;;;;;4876283;29;20222;-71
2024/02/20 15:07:15;;;;;;;14.45;4.28;;;10.20;99.90;;;;;;4878320;29;20605;-70
2024/02/20 15:09:42;;;;;;;10.18;4.60;;;10.10;99.90;;;;;;4877626;29;20227;-72
2024/02/20 15:12:18;;;;;;;12.02;4.88;;;10.20;99.90;;;;;;4876094;29;20242;-71
2024/02/20 15:14:48;;;;;;;6.20;4.15;;;10.20;99.90;;;;;;4876918;29;20214;-71
2024/02/20 15:17:14;;;;;;;10.95;4.50;;;10.10;99.90;;;;;;4874369;29;20272;-71
2024/02/20 15:19:41;;;;;;;7.72;4.90;;;10.10;99.90;;;;;;4876790;29;20211;-72
2024/02/20 15:22:08;;;;;;;6.55;4.28;;;10.10;99.90;;;;;;4876387;29;20230;-71
2024/02/20 15:24:36;;;;;;;8.82;3.00;;;10.10;99.90;;;;;;4876612;29;20673;-71
2024/02/20 15:27:04;;;;;;;13.52;4.55;;;10.10;99.90;;;;;;4877232;29;20653;-71
2024/02/20 15:29:31;;;;;;;9.10;3.88;;;10.10;99.90;;;;;;4870436;29;20213;-71
2024/02/20 15:31:58;;;;;;;6.10;3.90;;;10.10;99.90;;;;;;4877311;29;20277;-70
2024/02/20 15:34:26;;;;;;;7.32;3.60;;;10.10;99.90;;;;;;4878200;29;20294;-70
2024/02/20 15:36:53;;;;;;;11.85;4.63;;;10.10;99.90;;;;;;4876171;29;20233;-70
2024/02/20 15:39:20;;;;;;;7.45;4.40;;;10.00;99.90;;;;;;4873462;29;20665;-70
2024/02/20 15:41:48;;;;;;;10.00;3.17;;;10.00;99.90;;;;;;4877063;29;20233;-69
2024/02/20 15:44:15;;;;;;;4.80;3.58;;;10.00;99.90;;;;;;4881751;29;20531;-71
2024/02/20 15:46:43;;;;;;;5.18;3.70;;;9.90;99.90;;;;;;4877107;29;20222;-70
2024/02/20 15:49:10;;;;;;;13.98;3.88;;;9.90;99.90;;;;;;4876042;29;20218;-70
2024/02/20 15:51:42;;;;;;;6.82;3.10;;;9.90;99.90;;;;;;4876328;29;20247;-70
2024/02/20 15:54:09;;;;;;;11.13;4.25;;;9.90;99.90;;;;;;4872197;29;20225;-70
2024/02/20 15:56:36;;;;;;;5.35;2.63;;;9.90;99.90;;;;;;4874743;29;20246;-69
2024/02/20 15:59:04;;;;;;;7.97;3.13;;;9.90;99.90;;;;;;4874045;29;20229;-69
2024/02/20 16:01:31;;;;;;;6.47;3.50;;;9.80;99.90;;;;;;4877325;29;20265;-69
2024/02/20 16:03:58;;;;;;;6.75;3.47;;;9.80;99.90;;;;;;4872004;29;20217;-69
2024/02/20 16:06:26;;;;;;;2.70;2.60;;;9.80;99.90;;;;;;4876537;29;20298;-71
2024/02/20 16:08:54;;;;;;;7.40;2.78;;;9.80;99.90;;;;;;4875622;29;20223;-70
2024/02/20 16:11:21;;;;;;;4.30;2.47;;;9.80;99.90;;;;;;4875912;29;20891;-69
2024/02/20 16:13:50;;;;;;;2.78;2.53;;;9.80;99.90;;;;;;4877948;29;20605;-69
2024/02/20 16:16:19;;;;;;;5.80;2.70;;;9.70;99.90;;;;;;4878359;29;20221;-70
2024/02/20 16:18:45;;;;;;;10.73;3.10;;;9.70;99.90;;;;;;4875719;29;20241;-70
2024/02/20 16:21:12;;;;;;;9.77;2.55;;;9.70;99.90;;;;;;4877652;29;20352;-71
2024/02/20 16:23:39;;;;;;;5.20;2.70;;;9.70;99.90;;;;;;4877297;29;20587;-70
2024/02/20 16:26:06;;;;;;;5.50;2.90;;;9.70;99.90;;;;;;4878744;29;20218;-71
2024/02/20 16:28:34;;;;;;;11.27;3.28;;;9.50;99.90;;;;;;4878223;29;20228;-70
2024/02/20 16:31:00;;;;;;;4.47;2.63;;;9.40;99.90;;;;;;4875951;29;20692;-71
2024/02/20 16:33:28;;;;;;;11.35;2.95;;;9.30;99.90;;;;;;4877121;29;20236;-70
2024/02/20 16:35:57;;;;;;;8.63;2.50;;;9.30;99.90;;;;;;4876515;29;20329;-70
2024/02/20 16:38:26;;;;;;;6.60;3.40;;;9.30;99.90;;;;;;4872645;29;20323;-71
2024/02/20 16:40:53;;;;;;;10.50;3.88;;;9.20;99.90;;;;;;4876285;29;20304;-70
2024/02/20 16:43:20;;;;;;;8.50;3.90;;;9.20;99.90;;;;;;4868323;29;20203;-70
2024/02/20 16:45:46;;;;;;;18.65;4.00;;;9.20;99.90;;;;;;4876992;29;20221;-69
2024/02/20 16:48:13;;;;;;;9.23;4.38;;;9.10;99.90;;;;;;4876466;29;20210;-70
2024/02/20 16:50:41;;;;;;;10.70;4.32;;;9.10;99.90;;;;;;4876713;29;20322;-71
2024/02/20 16:53:08;;;;;;;10.02;3.65;;;9.00;99.90;;;;;;4876417;29;20210;-70
2024/02/20 16:55:35;;;;;;;12.15;4.00;;;9.00;99.90;;;;;;4875847;29;20302;-71
2024/02/20 16:58:03;;;;;;;2.78;2.58;;;9.00;99.90;;;;;;4877623;29;20238;-68
2024/02/20 17:00:31;;;;;;;4.55;4.18;;;9.00;99.90;;;;;;4876382;29;20695;-69
2024/02/20 17:02:59;;;;;;;6.63;3.22;;;8.90;99.90;;;;;;4874804;29;20209;-71
2024/02/20 17:05:26;;;;;;;5.63;3.20;;;8.90;99.90;;;;;;4877369;29;20220;-70
2024/02/20 17:07:54;;;;;;;3.25;2.97;;;8.90;99.90;;;;;;4873361;29;20752;-70
2024/02/20 17:10:22;;;;;;;11.60;3.65;;;8.90;99.90;;;;;;4879400;29;20664;-70
2024/02/20 17:12:48;;;;;;;8.40;3.97;;;8.80;99.90;;;;;;4881620;29;20287;-69
2024/02/20 17:15:16;;;;;;;13.75;3.55;;;8.80;99.90;;;;;;4883119;29;20219;-70
2024/02/20 17:17:44;;;;;;;6.45;3.50;;;8.80;99.90;;;;;;4878317;29;20319;-70
2024/02/20 17:20:12;;;;;;;5.55;4.13;;;8.80;99.90;;;;;;4880999;29;20212;-70
2024/02/20 17:22:39;;;;;;;5.47;3.35;;;8.80;99.90;;;;;;4881548;29;20220;-70
2024/02/20 17:25:09;;;;;;;5.45;3.63;;;8.70;99.90;;;;;;4882273;29;20216;-70
2024/02/20 17:27:36;;;;;;;6.60;3.80;;;8.70;99.90;;;;;;4880820;29;20222;-69
2024/02/20 17:30:03;;;;;;;6.25;3.25;;;8.70;99.90;;;;;;4882729;29;20572;-70
2024/02/20 17:32:29;;;;;;;4.07;3.67;;;8.70;99.90;;;;;;4883082;29;20707;-70
2024/02/20 17:34:56;;;;;;;4.63;4.03;;;8.70;99.90;;;;;;4882820;29;20216;-70
2024/02/20 17:37:23;;;;;;;7.47;4.57;;;8.70;99.90;;;;;;4881699;29;20621;-70
2024/02/20 17:39:50;;;;;;;8.07;3.92;;;8.70;99.90;;;;;;4882221;29;20211;-70
2024/02/20 17:42:18;;;;;;;4.43;3.97;;;8.70;99.90;;;;;;4881415;29;20238;-70
2024/02/20 17:44:45;;;;;;;7.10;4.75;;;8.70;99.90;;;;;;4882811;29;20212;-70
2024/02/20 17:47:13;;;;;;;8.55;4.25;;;8.60;99.90;;;;;;4882747;29;20208;-71
2024/02/20 17:49:40;;;;;;;12.07;6.50;;;8.70;99.90;;;;;;4882639;29;20212;-70
2024/02/20 17:52:09;;;;;;;10.38;4.45;;;8.60;99.90;;;;;;4882937;29;20232;-70